LFML/MRS METAR and TAF weather

Enter ICAO airport designator
Station Type Date Time Source
LFML METAR 2019/06/26 20:00 UTC NOAA

LFML 262000Z AUTO 33006KT CAVOK 28/19 Q1021 NOSIG


Station Type Date Time Source
LFML Decoded METAR 2019/06/26 20:00 UTC NOAA

Marseille / Marignane, France (LFML) 43-27N 005-14E 36M
Jun 26, 2019 - 04:00 PM EDT / 2019.06.26 2000 UTC
Wind: from the NNW (330 degrees) at 7 MPH (6 KT):0
Visibility: greater than 7 mile(s):0
Temperature: 82 F (28 C)
Dew Point: 66 F (19 C)
Relative Humidity: 58%
Pressure (altimeter): 30.15 in. Hg (1021 hPa)
ob: LFML 262000Z AUTO 33006KT CAVOK 28/19 Q1021 NOSIG
cycle: 20

Station Type Date Time Source
LFML TAF 2019/06/26 15:26 UTC NOAA

TAF LFML 261400Z 2615/2721 18013KT CAVOK TX39/2713Z TN24/2704Z
BECMG 2617/2619 VRB03KT
BECMG 2707/2709 26007KT
TEMPO 2713/2716 23012KT
BECMG 2716/2718 VRB03KT

Example: see airport list